createdAt,value
2018-01-19T00:01:06.582Z,100634.75
2018-01-19T00:04:08.507Z,100635.65
2018-01-19T00:07:10.470Z,100564.96
2018-01-19T00:10:12.392Z,100630.17
2018-01-19T00:13:14.387Z,100648.26
2018-01-19T00:16:16.289Z,100657.35
2018-01-19T00:19:18.306Z,100660.44
2018-01-19T00:22:20.275Z,100699.79
2018-01-19T00:25:22.191Z,100705.33
2018-01-19T00:28:24.155Z,100713.77
2018-01-19T00:31:26.095Z,100725.72
2018-01-19T00:34:28.069Z,100727.49
2018-01-19T00:37:29.974Z,100714.68
2018-01-19T00:40:31.953Z,100718.15
2018-01-19T00:43:33.863Z,100718.35
2018-01-19T00:46:35.830Z,100718.79
2018-01-19T00:49:37.976Z,100726.30
2018-01-19T00:52:39.943Z,100727.15
2018-01-19T00:55:41.860Z,100731.94
2018-01-19T00:58:43.827Z,100718.41
2018-01-19T01:01:45.962Z,100721.55
2018-01-19T01:04:47.935Z,100722.45
2018-01-19T01:07:49.842Z,100715.06
2018-01-19T01:10:51.823Z,100719.92
2018-01-19T01:13:53.764Z,100722.52
2018-01-19T01:16:55.723Z,100728.31
2018-01-19T01:19:57.643Z,100735.69
2018-01-19T01:22:59.619Z,100744.90
2018-01-19T01:26:01.638Z,100750.25
2018-01-19T01:29:03.614Z,100749.23
2018-01-19T01:32:05.526Z,100751.00
2018-01-19T01:35:07.442Z,100745.31
2018-01-19T01:38:09.415Z,100756.40
2018-01-19T01:41:11.340Z,100762.62
2018-01-19T01:44:13.299Z,100772.45
2018-01-19T01:47:15.266Z,100774.81
2018-01-19T01:50:18.234Z,100793.82
2018-01-19T01:53:20.138Z,100795.59
2018-01-19T01:56:22.119Z,100794.96
2018-01-19T01:59:24.056Z,100792.07
2018-01-19T02:02:26.018Z,100791.48
2018-01-19T02:05:27.948Z,100795.74
2018-01-19T02:08:29.907Z,100801.02
2018-01-19T02:11:31.826Z,100800.09
2018-01-19T02:14:33.800Z,100779.08
2018-01-19T02:17:35.735Z,100782.67
2018-01-19T02:20:37.694Z,100803.12
2018-01-19T02:23:39.610Z,100808.91
2018-01-19T02:26:41.599Z,100813.76
2018-01-19T02:29:43.506Z,100810.09
2018-01-19T02:32:45.505Z,100811.40
2018-01-19T02:35:47.498Z,100819.57
2018-01-19T02:38:49.514Z,100814.03
2018-01-19T02:41:51.474Z,100813.01
2018-01-19T02:44:53.391Z,100815.05
2018-01-19T02:47:55.375Z,100810.32
2018-01-19T02:50:57.296Z,100823.60
2018-01-19T02:53:59.352Z,100820.80
2018-01-19T02:57:01.275Z,100832.35
2018-01-19T03:00:03.288Z,100834.51
2018-01-19T03:03:06.311Z,100842.92
2018-01-19T03:06:08.271Z,100847.70
2018-01-19T03:09:10.195Z,100856.50
2018-01-19T03:12:12.176Z,100865.91
2018-01-19T03:15:14.128Z,100869.49
2018-01-19T03:18:16.055Z,100874.35
2018-01-19T03:21:17.987Z,100884.92
2018-01-19T03:24:19.875Z,100888.91
2018-01-19T03:27:21.803Z,100880.39
2018-01-19T03:30:23.772Z,100892.67
2018-01-19T03:33:25.786Z,100890.55
2018-01-19T03:36:27.767Z,100892.51
2018-01-19T03:39:29.693Z,100895.74
2018-01-19T03:42:31.651Z,100905.20
2018-01-19T03:45:33.591Z,100917.20
2018-01-19T03:48:35.566Z,100923.33
2018-01-19T03:51:37.543Z,100925.95
2018-01-19T03:54:39.455Z,100926.48
2018-01-19T03:57:41.443Z,100948.36
2018-01-19T04:00:43.450Z,100950.49
2018-01-19T04:03:45.458Z,100953.63
2018-01-19T04:06:47.683Z,100949.49
2018-01-19T04:09:49.687Z,100952.30
2018-01-19T04:12:51.666Z,100954.08
2018-01-19T04:15:53.666Z,100960.10
2018-01-19T04:18:55.646Z,100972.04
2018-01-19T04:21:57.563Z,100983.50
2018-01-19T04:24:59.547Z,100993.82
2018-01-19T04:28:01.455Z,100999.79
2018-01-19T04:31:03.354Z,101004.96
2018-01-19T04:34:05.275Z,100999.12
2018-01-19T04:37:07.167Z,100986.34
2018-01-19T04:40:09.054Z,100988.99
2018-01-19T04:43:10.939Z,101003.79
2018-01-19T04:46:12.845Z,101019.37
2018-01-19T04:49:14.728Z,101024.31
2018-01-19T04:52:16.640Z,101026.24
2018-01-19T04:55:18.547Z,101025.49
2018-01-19T04:58:20.419Z,101031.46
2018-01-19T05:01:22.336Z,101042.49
2018-01-19T05:04:24.225Z,101042.25
2018-01-19T05:07:26.435Z,101050.33
2018-01-19T05:10:28.315Z,101053.63
2018-01-19T05:13:30.226Z,101057.74
2018-01-19T05:16:32.110Z,101065.88
2018-01-19T05:19:34.003Z,101073.26
2018-01-19T05:22:35.888Z,101075.62
2018-01-19T05:25:37.808Z,101080.90
2018-01-19T05:28:39.779Z,101078.06
2018-01-19T05:31:41.707Z,101085.85
2018-01-19T05:34:43.663Z,101094.52
2018-01-19T05:37:45.586Z,101093.42
2018-01-19T05:40:47.719Z,101094.84
2018-01-19T05:43:49.678Z,101103.92
2018-01-19T05:46:51.731Z,101106.21
2018-01-19T05:49:53.714Z,101110.68
2018-01-19T05:52:55.695Z,101114.95
2018-01-19T05:55:57.806Z,101123.03
2018-01-19T05:58:59.787Z,101127.80
2018-01-19T06:02:01.703Z,101134.82
2018-01-19T06:05:03.627Z,101143.59
2018-01-19T06:08:05.559Z,101147.92
2018-01-19T06:11:07.484Z,101145.60
2018-01-19T06:14:09.450Z,101155.04
2018-01-19T06:17:11.487Z,101159.64
2018-01-19T06:20:14.483Z,101165.40
2018-01-19T06:23:16.407Z,101165.73
2018-01-19T06:26:18.382Z,101169.53
2018-01-19T06:29:20.298Z,101175.15
2018-01-19T06:32:22.168Z,101181.01
2018-01-19T06:35:24.202Z,101200.11
2018-01-19T06:38:26.078Z,101203.34
2018-01-19T06:41:28.031Z,101206.04
2018-01-19T06:44:29.908Z,101210.22
2018-01-19T06:47:31.827Z,101215.42
2018-01-19T06:50:33.768Z,101220.00
2018-01-19T06:53:35.619Z,101214.39
2018-01-19T06:56:37.507Z,101224.10
2018-01-19T06:59:39.398Z,101224.32
2018-01-19T07:02:41.290Z,101228.49
2018-01-19T07:05:43.342Z,101237.70
2018-01-19T07:08:45.190Z,101245.26
2018-01-19T07:11:47.354Z,101251.83
2018-01-19T07:14:49.239Z,101259.34
2018-01-19T07:17:51.360Z,101268.35
2018-01-19T07:20:53.242Z,101278.26
2018-01-19T07:23:55.255Z,101291.56
2018-01-19T07:26:57.177Z,101304.27
2018-01-19T07:29:59.042Z,101308.52
2018-01-19T07:33:00.959Z,101314.41
2018-01-19T07:36:02.963Z,101325.14
2018-01-19T07:39:04.849Z,101328.04
2018-01-19T07:42:06.787Z,101329.19
2018-01-19T07:45:08.703Z,101335.39
2018-01-19T07:48:10.663Z,101337.02
2018-01-19T07:51:12.555Z,101341.67
2018-01-19T07:54:14.738Z,101349.37
2018-01-19T07:57:16.672Z,101349.05
2018-01-19T08:00:18.559Z,101358.41
2018-01-19T08:03:20.484Z,101364.87
2018-01-19T08:06:22.355Z,101367.75
2018-01-19T08:09:24.292Z,101376.26
2018-01-19T08:12:26.203Z,101381.79
2018-01-19T08:15:28.099Z,101384.96
2018-01-19T08:18:29.981Z,101389.97
2018-01-19T08:21:31.899Z,101388.99
2018-01-19T08:24:33.770Z,101390.67
2018-01-19T08:27:35.679Z,101390.31
2018-01-19T08:30:37.595Z,101392.45
2018-01-19T08:33:39.519Z,101398.57
2018-01-19T08:36:41.396Z,101404.27
2018-01-19T08:39:43.334Z,101408.13
2018-01-19T08:42:45.202Z,101410.34
2018-01-19T08:45:47.271Z,101417.40
2018-01-19T08:48:49.159Z,101419.29
2018-01-19T08:51:51.075Z,101419.70
2018-01-19T08:54:52.960Z,101425.70
2018-01-19T08:57:55.059Z,101426.10
2018-01-19T09:00:56.947Z,101432.51
2018-01-19T09:03:58.887Z,101432.16
2018-01-19T09:07:00.824Z,101431.57
2018-01-19T09:10:02.767Z,101432.24
2018-01-19T09:13:04.640Z,101447.83
2018-01-19T09:16:06.551Z,101448.18
2018-01-19T09:19:08.435Z,101452.12
2018-01-19T09:22:10.634Z,101461.33
2018-01-19T09:25:12.735Z,101466.69
2018-01-19T09:28:14.671Z,101463.45
2018-01-19T09:31:17.820Z,101475.58
2018-01-19T09:34:19.699Z,101479.91
2018-01-19T09:37:21.960Z,101478.99
2018-01-19T09:40:23.840Z,101483.25
2018-01-19T09:43:25.780Z,101486.13
2018-01-19T09:46:27.767Z,101484.00
2018-01-19T09:49:29.668Z,101489.82
2018-01-19T09:52:31.957Z,101495.09
2018-01-19T09:55:33.825Z,101498.33
2018-01-19T09:58:35.843Z,101503.94
2018-01-19T10:01:37.718Z,101503.94
2018-01-19T10:04:39.915Z,101507.98
2018-01-19T10:07:41.867Z,101515.89
2018-01-19T10:10:43.763Z,101513.91
2018-01-19T10:13:45.839Z,101510.50
2018-01-19T10:16:48.738Z,101509.58
2018-01-19T10:19:50.658Z,101509.24
2018-01-19T10:22:52.583Z,101509.24
2018-01-19T10:25:54.467Z,101511.70
2018-01-19T10:28:56.451Z,101516.58
2018-01-19T10:31:58.419Z,101514.62
2018-01-19T10:35:00.476Z,101509.48
2018-01-19T10:38:02.430Z,101510.69
2018-01-19T10:41:04.310Z,101509.99
2018-01-19T10:44:06.274Z,101508.21
2018-01-19T10:47:08.201Z,101513.59
2018-01-19T10:50:10.111Z,101514.61
2018-01-19T10:53:12.004Z,101516.31
2018-01-19T10:56:14.981Z,101514.43
2018-01-19T10:59:17.031Z,101507.51
2018-01-19T11:02:19.359Z,101507.45
2018-01-19T11:05:21.468Z,101509.04
2018-01-19T11:08:23.338Z,101504.53
2018-01-19T11:11:25.250Z,101508.97
2018-01-19T11:14:27.122Z,101509.03
2018-01-19T11:17:29.073Z,101507.16
2018-01-19T11:20:30.943Z,101506.56
2018-01-19T11:23:32.875Z,101499.49
2018-01-19T11:26:34.761Z,101502.73
2018-01-19T11:29:36.670Z,101506.09
2018-01-19T11:32:38.599Z,101504.69
2018-01-19T11:35:40.494Z,101506.32
2018-01-19T11:38:42.394Z,101507.51
2018-01-19T11:41:44.275Z,101517.26
2018-01-19T11:44:46.216Z,101519.03
2018-01-19T11:47:48.071Z,101518.94
2018-01-19T11:50:49.990Z,101514.68
2018-01-19T11:53:51.919Z,101503.44
2018-01-19T11:56:53.803Z,101494.48
2018-01-19T11:59:56.007Z,101487.65
2018-01-19T12:02:57.882Z,101479.29
2018-01-19T12:05:59.804Z,101474.86
2018-01-19T12:09:01.683Z,101469.81
2018-01-19T12:12:03.816Z,101466.66
2018-01-19T12:15:05.703Z,101468.01
2018-01-19T12:18:07.619Z,101469.71
2018-01-19T12:21:09.535Z,101471.95
2018-01-19T12:24:11.605Z,101468.81
2018-01-19T12:27:13.482Z,101464.37
2018-01-19T12:30:15.436Z,101458.13
2018-01-19T12:33:17.323Z,101457.11
2018-01-19T12:36:19.269Z,101455.16
2018-01-19T12:39:21.171Z,101451.67
2018-01-19T12:42:23.087Z,101442.12
2018-01-19T12:45:24.972Z,101430.61
2018-01-19T12:48:26.891Z,101429.49
2018-01-19T12:51:28.766Z,101432.57
2018-01-19T12:54:30.711Z,101434.01
2018-01-19T12:57:32.595Z,101430.68
2018-01-19T13:00:34.534Z,101429.51
2018-01-19T13:03:36.435Z,101429.75
2018-01-19T13:06:38.319Z,101425.51
2018-01-19T13:09:40.286Z,101424.90
2018-01-19T13:12:42.163Z,101417.92
2018-01-19T13:15:44.087Z,101413.14
2018-01-19T13:18:45.975Z,101411.60
2018-01-19T13:21:48.801Z,101409.29
2018-01-19T13:24:50.679Z,101402.23
2018-01-19T13:27:52.599Z,101399.86
2018-01-19T13:30:54.476Z,101397.28
2018-01-19T13:33:56.663Z,101395.23
2018-01-19T13:36:58.534Z,101397.04
2018-01-19T13:40:00.450Z,101395.33
2018-01-19T13:43:02.555Z,101394.38
2018-01-19T13:46:04.439Z,101393.77
2018-01-19T13:49:06.549Z,101397.71
2018-01-19T13:52:08.416Z,101395.38
2018-01-19T13:55:10.333Z,101394.37
2018-01-19T13:58:12.247Z,101397.62
2018-01-19T14:01:14.153Z,101402.66
2018-01-19T14:04:16.047Z,101378.12
2018-01-19T14:07:18.988Z,101405.42
2018-01-19T14:10:20.882Z,101397.94
2018-01-19T14:13:22.791Z,101394.97
2018-01-19T14:16:24.719Z,101393.49
2018-01-19T14:19:26.899Z,101393.07
2018-01-19T14:22:28.789Z,101388.22
2018-01-19T14:25:30.690Z,101390.96
2018-01-19T14:28:32.573Z,101399.96
2018-01-19T14:31:34.715Z,101401.78
2018-01-19T14:34:36.642Z,101404.32
2018-01-19T14:37:38.546Z,101407.58
2018-01-19T14:40:40.439Z,101406.14
2018-01-19T14:43:42.380Z,101407.76
2018-01-19T14:46:44.279Z,101406.28
2018-01-19T14:49:46.206Z,101404.43
2018-01-19T14:52:48.100Z,101408.25
2018-01-19T14:55:50.012Z,101406.46
2018-01-19T14:58:51.923Z,101413.54
2018-01-19T15:01:53.848Z,101409.34
2018-01-19T15:04:55.714Z,101407.13
2018-01-19T15:07:57.651Z,101410.79
2018-01-19T15:10:59.523Z,101403.64
2018-01-19T15:14:01.651Z,101400.45
2018-01-19T15:17:03.531Z,101400.12
2018-01-19T15:20:05.459Z,101403.52
2018-01-19T15:23:07.358Z,101399.88
2018-01-19T15:26:09.267Z,101401.98
2018-01-19T15:29:11.131Z,101407.81
2018-01-19T15:32:13.072Z,101404.99
2018-01-19T15:35:14.945Z,101405.90
2018-01-19T15:38:16.875Z,101404.12
2018-01-19T15:41:18.743Z,101404.13
2018-01-19T15:44:20.644Z,101407.96
2018-01-19T15:47:22.527Z,101407.76
2018-01-19T15:50:24.690Z,101401.62
2018-01-19T15:53:26.567Z,101400.72
2018-01-19T15:56:28.479Z,101398.06
2018-01-19T15:59:30.357Z,101396.87
2018-01-19T16:02:32.436Z,101391.04
2018-01-19T16:05:34.559Z,101396.00
2018-01-19T16:08:36.476Z,101399.07
2018-01-19T16:11:38.360Z,101406.07
2018-01-19T16:14:40.275Z,101404.53
2018-01-19T16:17:42.151Z,101399.48
2018-01-19T16:20:44.068Z,101396.19
2018-01-19T16:23:45.999Z,101400.63
2018-01-19T16:26:47.947Z,101395.33
2018-01-19T16:29:50.871Z,101396.50
2018-01-19T16:32:53.030Z,101392.87
2018-01-19T16:35:54.911Z,101395.06
2018-01-19T16:38:56.814Z,101394.73
2018-01-19T16:41:58.851Z,101394.55
2018-01-19T16:45:00.767Z,101390.04
2018-01-19T16:48:02.685Z,101388.74
2018-01-19T16:51:04.635Z,101393.18
2018-01-19T16:54:06.702Z,101393.89
2018-01-19T16:57:08.587Z,101394.81
2018-01-19T17:00:10.518Z,101394.88
2018-01-19T17:03:12.403Z,101392.08
2018-01-19T17:06:14.326Z,101392.53
2018-01-19T17:09:16.208Z,101394.31
2018-01-19T17:12:18.142Z,101395.33
2018-01-19T17:15:20.111Z,101395.15
2018-01-19T17:18:22.056Z,101390.31
2018-01-19T17:21:24.022Z,101397.12
2018-01-19T17:24:25.989Z,101402.00
2018-01-19T17:27:27.942Z,101403.34
2018-01-19T17:30:29.888Z,101402.49
2018-01-19T17:33:31.900Z,101401.20
2018-01-19T17:36:34.238Z,101393.01
2018-01-19T17:39:36.175Z,101398.37
2018-01-19T17:42:38.331Z,101404.20
2018-01-19T17:45:40.325Z,101412.82
2018-01-19T17:48:42.463Z,101412.54
2018-01-19T17:51:44.435Z,101413.16
2018-01-19T17:54:46.426Z,101407.70
2018-01-19T17:57:48.411Z,101412.90
2018-01-19T18:00:50.307Z,101414.64
2018-01-19T18:03:52.187Z,101413.00
2018-01-19T18:06:54.099Z,101414.72
2018-01-19T18:09:56.031Z,101418.81
2018-01-19T18:12:57.924Z,101423.10
2018-01-19T18:15:59.786Z,101424.86
2018-01-19T18:19:01.707Z,101425.29
2018-01-19T18:22:03.589Z,101418.87
2018-01-19T18:25:05.511Z,101418.87
2018-01-19T18:28:07.383Z,101429.65
2018-01-19T18:31:09.295Z,101426.08
2018-01-19T18:34:11.171Z,101422.22
2018-01-19T18:37:13.403Z,101432.98
2018-01-19T18:40:15.274Z,101431.50
2018-01-19T18:43:17.186Z,101432.18
2018-01-19T18:46:19.083Z,101432.23
2018-01-19T18:49:21.887Z,101431.73
2018-01-19T18:52:23.922Z,101430.53
2018-01-19T18:55:25.794Z,101435.28
2018-01-19T18:58:27.757Z,101430.69
2018-01-19T19:01:29.655Z,101434.79
2018-01-19T19:04:31.573Z,101434.77
2018-01-19T19:07:33.480Z,101439.06
2018-01-19T19:10:35.394Z,101433.36
2018-01-19T19:13:37.286Z,101438.14
2018-01-19T19:16:39.192Z,101439.50
2018-01-19T19:19:41.123Z,101440.18
2018-01-19T19:22:43.026Z,101447.54
2018-01-19T19:25:44.915Z,101460.91
2018-01-19T19:28:46.829Z,101466.61
2018-01-19T19:31:48.747Z,101467.98
2018-01-19T19:34:50.686Z,101469.71
2018-01-19T19:37:52.579Z,101470.03
2018-01-19T19:40:54.516Z,101473.78
2018-01-19T19:43:56.386Z,101478.93
2018-01-19T19:46:58.669Z,101478.73
2018-01-19T19:50:00.540Z,101480.89
2018-01-19T19:53:02.482Z,101485.90
2018-01-19T19:56:04.355Z,101481.29
2018-01-19T19:59:06.267Z,101486.41
2018-01-19T20:02:08.172Z,101494.38
2018-01-19T20:05:10.058Z,101500.70
2018-01-19T20:08:11.943Z,101502.23
2018-01-19T20:11:13.899Z,101504.55
2018-01-19T20:14:15.759Z,101506.50
2018-01-19T20:17:17.815Z,101505.32
2018-01-19T20:20:19.715Z,101511.69
2018-01-19T20:23:21.729Z,101513.32
2018-01-19T20:26:23.905Z,101508.97
2018-01-19T20:29:25.876Z,101516.72
2018-01-19T20:32:27.842Z,101520.64
2018-01-19T20:35:29.747Z,101524.23
2018-01-19T20:38:31.632Z,101526.96
2018-01-19T20:41:33.534Z,101531.67
2018-01-19T20:44:35.403Z,101524.31
2018-01-19T20:47:37.320Z,101527.47
2018-01-19T20:50:39.192Z,101525.54
2018-01-19T20:53:41.120Z,101521.96
2018-01-19T20:56:43.012Z,101522.72
2018-01-19T20:59:44.941Z,101527.41
2018-01-19T21:02:46.839Z,101526.19
2018-01-19T21:05:48.786Z,101528.16
2018-01-19T21:08:50.812Z,101529.79
2018-01-19T21:11:52.690Z,101533.92
2018-01-19T21:14:54.609Z,101531.67
2018-01-19T21:17:56.809Z,101540.63
2018-01-19T21:20:59.058Z,101545.16
2018-01-19T21:24:00.990Z,101548.30
2018-01-19T21:27:02.871Z,101552.57
2018-01-19T21:30:04.775Z,101553.77
2018-01-19T21:33:06.662Z,101561.19
2018-01-19T21:36:08.691Z,101568.17
2018-01-19T21:39:10.591Z,101571.52
2018-01-19T21:42:12.485Z,101573.97
2018-01-19T21:45:14.364Z,101570.65
2018-01-19T21:48:16.286Z,101578.68
2018-01-19T21:51:18.159Z,101578.01
2018-01-19T21:54:20.203Z,101584.16
2018-01-19T21:57:22.066Z,101575.11
2018-01-19T22:00:23.967Z,101570.83
2018-01-19T22:03:25.855Z,101572.90
2018-01-19T22:06:27.815Z,101577.39
2018-01-19T22:09:30.561Z,101585.01
2018-01-19T22:12:32.458Z,101586.95
2018-01-19T22:15:34.472Z,101585.65
2018-01-19T22:18:36.575Z,101593.08
2018-01-19T22:21:38.618Z,101592.56
2018-01-19T22:24:40.491Z,101599.58
2018-01-19T22:27:42.419Z,101601.36
2018-01-19T22:30:44.415Z,101601.17
2018-01-19T22:33:46.330Z,101599.89
2018-01-19T22:36:48.260Z,101598.96
2018-01-19T22:39:50.254Z,101595.67
2018-01-19T22:42:52.267Z,101594.73
2018-01-19T22:45:54.261Z,101595.64
2018-01-19T22:48:56.265Z,101602.97
2018-01-19T22:51:58.231Z,101603.46
2018-01-19T22:55:00.701Z,101599.30
2018-01-19T22:58:02.648Z,101593.84
2018-01-19T23:01:04.659Z,101599.81
2018-01-19T23:04:06.638Z,101602.25
2018-01-19T23:07:08.601Z,101604.91
2018-01-19T23:10:10.534Z,101605.01
2018-01-19T23:13:12.466Z,101606.19
2018-01-19T23:16:14.467Z,101611.73
2018-01-19T23:19:16.450Z,101603.65
2018-01-19T23:22:18.772Z,101605.36
2018-01-19T23:25:20.739Z,101609.57
2018-01-19T23:28:22.646Z,101609.00
2018-01-19T23:31:24.639Z,101616.06
2018-01-19T23:34:26.543Z,101602.86
2018-01-19T23:37:28.521Z,101604.62
2018-01-19T23:40:30.458Z,101597.40
2018-01-19T23:43:32.410Z,101588.09
2018-01-19T23:46:34.335Z,101555.07
2018-01-19T23:49:36.345Z,101579.75
2018-01-19T23:52:38.306Z,101579.43
2018-01-19T23:55:40.218Z,101579.22
2018-01-19T23:58:42.202Z,101588.42
